createdAt,value
2019-03-29T00:01:02.173Z,4.06
2019-03-29T00:02:12.926Z,4.06
2019-03-29T00:03:23.696Z,4.06
2019-03-29T00:04:34.447Z,4.06
2019-03-29T00:05:45.189Z,4.06
2019-03-29T00:06:55.940Z,4.06
2019-03-29T00:08:09.091Z,4.06
2019-03-29T00:09:18.939Z,4.06
2019-03-29T00:10:29.687Z,4.06
2019-03-29T00:11:40.435Z,4.06
2019-03-29T00:12:51.193Z,4.06
2019-03-29T00:14:01.958Z,4.06
2019-03-29T00:15:12.722Z,4.06
2019-03-29T00:16:23.952Z,4.06
2019-03-29T00:17:34.705Z,4.06
2019-03-29T00:18:45.461Z,4.06
2019-03-29T00:19:57.213Z,4.06
2019-03-29T00:21:07.954Z,4.06
2019-03-29T00:22:18.690Z,4.06
2019-03-29T00:23:29.456Z,4.06
2019-03-29T00:24:40.421Z,4.06
2019-03-29T00:25:52.426Z,4.06
2019-03-29T00:27:03.686Z,4.06
2019-03-29T00:28:14.432Z,4.06
2019-03-29T00:29:25.187Z,4.06
2019-03-29T00:30:35.927Z,4.06
2019-03-29T00:31:46.670Z,4.06
2019-03-29T00:32:57.989Z,4.06
2019-03-29T00:34:08.168Z,4.06
2019-03-29T00:35:18.907Z,4.06
2019-03-29T00:36:30.652Z,4.06
2019-03-29T00:37:52.707Z,4.06
2019-03-29T00:38:52.137Z,4.06
2019-03-29T00:40:03.374Z,4.06
2019-03-29T00:41:14.115Z,4.06
2019-03-29T00:42:24.859Z,4.06
2019-03-29T00:43:36.109Z,4.06
2019-03-29T00:44:46.847Z,4.06
2019-03-29T00:45:57.581Z,4.06
2019-03-29T00:47:08.335Z,4.06
2019-03-29T00:48:19.075Z,4.06
2019-03-29T00:49:29.834Z,4.06
2019-03-29T00:50:41.577Z,4.06
2019-03-29T00:51:52.309Z,4.06
2019-03-29T00:53:03.038Z,4.06
2019-03-29T00:54:14.281Z,4.06
2019-03-29T00:55:26.583Z,4.06
2019-03-29T00:56:37.324Z,4.06
2019-03-29T00:57:48.075Z,4.06
2019-03-29T00:58:58.814Z,4.06
2019-03-29T01:00:10.065Z,4.06
2019-03-29T01:01:20.788Z,4.06
2019-03-29T01:02:32.033Z,4.06
2019-03-29T01:03:42.765Z,4.06
2019-03-29T01:04:54.294Z,4.06
2019-03-29T01:06:04.234Z,4.06
2019-03-29T01:07:15.966Z,4.06
2019-03-29T01:08:26.701Z,4.06
2019-03-29T01:09:38.443Z,4.06
2019-03-29T01:10:49.182Z,4.06
2019-03-29T01:11:59.921Z,4.06
2019-03-29T01:13:10.658Z,4.06
2019-03-29T01:14:21.401Z,4.06
2019-03-29T01:15:32.132Z,4.06
2019-03-29T01:16:42.879Z,4.06
2019-03-29T01:17:53.612Z,4.06
2019-03-29T01:19:04.351Z,4.06
2019-03-29T01:20:15.415Z,4.06
2019-03-29T01:21:27.151Z,4.06
2019-03-29T01:22:37.895Z,4.06
2019-03-29T01:23:49.295Z,4.06
2019-03-29T01:24:59.371Z,4.06
2019-03-29T01:26:10.101Z,4.06
2019-03-29T01:27:20.849Z,4.06
2019-03-29T01:28:31.585Z,4.06
2019-03-29T01:29:42.806Z,4.06
2019-03-29T01:30:53.550Z,4.06
2019-03-29T01:32:04.292Z,4.06
2019-03-29T01:33:15.031Z,4.06
2019-03-29T01:34:26.253Z,4.06
2019-03-29T01:35:36.999Z,4.06
2019-03-29T01:36:47.731Z,4.06
2019-03-29T01:37:58.595Z,4.06
2019-03-29T01:39:09.337Z,4.06
2019-03-29T01:40:20.080Z,4.06
2019-03-29T01:41:30.823Z,4.06
2019-03-29T01:42:41.543Z,4.06
2019-03-29T01:43:52.288Z,4.06
2019-03-29T01:45:03.496Z,4.06
2019-03-29T01:46:14.229Z,4.06
2019-03-29T01:47:24.955Z,4.06
2019-03-29T01:48:35.681Z,4.06
2019-03-29T01:49:46.415Z,4.06
2019-03-29T01:50:57.156Z,4.06
2019-03-29T01:52:08.379Z,4.06
2019-03-29T01:53:19.112Z,4.06
2019-03-29T01:54:30.392Z,4.06
2019-03-29T01:55:40.575Z,4.06
2019-03-29T01:56:51.327Z,4.06
2019-03-29T01:58:02.079Z,4.06
2019-03-29T01:59:13.279Z,4.06
2019-03-29T02:00:24.005Z,4.06
2019-03-29T02:01:34.749Z,4.06
2019-03-29T02:02:46.220Z,4.06
2019-03-29T02:03:56.204Z,4.06
2019-03-29T02:05:06.937Z,4.06
2019-03-29T02:06:17.692Z,4.06
2019-03-29T02:07:28.419Z,4.06
2019-03-29T02:08:39.161Z,4.06
2019-03-29T02:09:49.885Z,4.06
2019-03-29T02:11:01.115Z,4.06
2019-03-29T02:12:12.348Z,4.06
2019-03-29T02:13:23.073Z,4.06
2019-03-29T02:14:35.293Z,4.06
2019-03-29T02:15:46.019Z,4.06
2019-03-29T02:16:56.757Z,4.06
2019-03-29T02:18:07.588Z,4.06
2019-03-29T02:19:18.322Z,4.06
2019-03-29T02:20:29.588Z,4.06
2019-03-29T02:21:40.329Z,4.06
2019-03-29T02:22:51.652Z,4.06
2019-03-29T02:24:02.333Z,4.06
2019-03-29T02:25:13.047Z,4.06
2019-03-29T02:26:23.782Z,4.06
2019-03-29T02:27:34.522Z,4.06
2019-03-29T02:28:45.753Z,4.06
2019-03-29T02:29:56.484Z,4.06
2019-03-29T02:31:07.232Z,4.06
2019-03-29T02:32:18.000Z,4.06
2019-03-29T02:33:28.716Z,4.06
2019-03-29T02:34:39.456Z,4.06
2019-03-29T02:35:50.194Z,4.06
2019-03-29T02:37:02.207Z,4.06
2019-03-29T02:38:12.659Z,4.06
2019-03-29T02:39:24.433Z,4.06
2019-03-29T02:40:35.245Z,4.06
2019-03-29T02:41:46.872Z,4.06
2019-03-29T02:42:56.613Z,4.06
2019-03-29T02:44:07.936Z,4.06
2019-03-29T02:45:18.789Z,4.06
2019-03-29T02:46:29.525Z,4.06
2019-03-29T02:47:40.777Z,4.06
2019-03-29T02:48:51.529Z,4.06
2019-03-29T02:50:02.277Z,4.06
2019-03-29T02:51:13.019Z,4.06
2019-03-29T02:52:24.260Z,4.06
2019-03-29T02:53:35.011Z,4.06
2019-03-29T02:54:45.765Z,4.06
2019-03-29T02:55:58.001Z,4.06
2019-03-29T02:57:09.750Z,4.06
2019-03-29T02:58:20.997Z,4.06
2019-03-29T02:59:31.748Z,4.05
2019-03-29T03:00:43.590Z,4.06
2019-03-29T03:01:55.351Z,4.06
2019-03-29T03:03:06.094Z,4.06
2019-03-29T03:04:16.858Z,4.05
2019-03-29T03:05:27.595Z,4.05
2019-03-29T03:06:38.350Z,4.05
2019-03-29T03:07:49.107Z,4.06
2019-03-29T03:09:13.423Z,4.05
2019-03-29T03:10:11.098Z,4.05
2019-03-29T03:11:21.843Z,4.06
2019-03-29T03:12:33.097Z,4.05
2019-03-29T03:13:44.857Z,4.06
2019-03-29T03:14:55.605Z,4.05
2019-03-29T03:16:06.366Z,4.05
2019-03-29T03:17:17.125Z,4.05
2019-03-29T03:18:28.374Z,4.06
2019-03-29T03:19:39.622Z,4.06
2019-03-29T03:20:50.372Z,4.06
2019-03-29T03:22:01.132Z,4.05
2019-03-29T03:23:12.383Z,4.05
2019-03-29T03:24:23.145Z,4.05
2019-03-29T03:25:34.387Z,4.06
2019-03-29T03:26:45.145Z,4.05
2019-03-29T03:27:55.913Z,4.05
2019-03-29T03:29:06.688Z,4.05
2019-03-29T03:30:17.456Z,4.05
2019-03-29T03:31:28.209Z,4.05
2019-03-29T03:32:40.450Z,4.06
2019-03-29T03:33:51.227Z,4.05
2019-03-29T03:35:01.997Z,4.05
2019-03-29T03:36:13.199Z,4.05
2019-03-29T03:37:23.957Z,4.05
2019-03-29T03:38:34.715Z,4.05
2019-03-29T03:39:45.968Z,4.06
2019-03-29T03:40:57.212Z,4.05
2019-03-29T03:42:08.472Z,4.05
2019-03-29T03:43:19.231Z,4.05
2019-03-29T03:44:30.000Z,4.05
2019-03-29T03:45:41.230Z,4.05
2019-03-29T03:46:51.985Z,4.05
2019-03-29T03:48:02.749Z,4.05
2019-03-29T03:49:14.162Z,4.05
2019-03-29T03:50:25.762Z,4.05
2019-03-29T03:51:36.503Z,4.05
2019-03-29T03:52:47.269Z,4.05
2019-03-29T03:53:58.032Z,4.05
2019-03-29T03:55:08.793Z,4.05
2019-03-29T03:56:19.550Z,4.05
2019-03-29T03:57:30.311Z,4.05
2019-03-29T03:58:41.074Z,4.05
2019-03-29T03:59:51.833Z,4.05
2019-03-29T04:01:03.129Z,4.05
2019-03-29T04:02:14.341Z,4.05
2019-03-29T04:03:25.591Z,4.05
2019-03-29T04:04:37.774Z,4.05
2019-03-29T04:05:47.105Z,4.05
2019-03-29T04:06:58.360Z,4.05
2019-03-29T04:08:09.633Z,4.05
2019-03-29T04:09:20.382Z,4.05
2019-03-29T04:10:31.142Z,4.05
2019-03-29T04:11:41.894Z,4.05
2019-03-29T04:12:52.644Z,4.05
2019-03-29T04:14:03.400Z,4.05
2019-03-29T04:15:14.179Z,4.05
2019-03-29T04:16:25.949Z,4.05
2019-03-29T04:17:36.700Z,4.05
2019-03-29T04:18:47.602Z,4.05
2019-03-29T04:19:58.357Z,4.05
2019-03-29T04:21:09.124Z,4.05
2019-03-29T04:22:19.884Z,4.05
2019-03-29T04:23:30.635Z,4.05
2019-03-29T04:24:41.877Z,4.05
2019-03-29T04:25:52.649Z,4.05
2019-03-29T04:27:04.882Z,4.05
2019-03-29T04:28:16.141Z,4.05
2019-03-29T04:29:26.886Z,4.05
2019-03-29T04:30:37.645Z,4.05
2019-03-29T04:31:49.887Z,4.05
2019-03-29T04:33:00.633Z,4.05
2019-03-29T04:34:11.913Z,4.05
2019-03-29T04:35:22.630Z,4.05
2019-03-29T04:36:33.381Z,4.05
2019-03-29T04:37:44.136Z,4.05
2019-03-29T04:38:54.887Z,4.05
2019-03-29T04:40:08.363Z,4.05
2019-03-29T04:41:16.889Z,4.05
2019-03-29T04:42:27.640Z,4.05
2019-03-29T04:43:38.888Z,4.05
2019-03-29T04:44:49.635Z,4.05
2019-03-29T04:46:00.385Z,4.05
2019-03-29T04:47:11.130Z,4.05
2019-03-29T04:48:21.875Z,4.05
2019-03-29T04:49:32.627Z,4.05
2019-03-29T04:50:43.385Z,4.05
2019-03-29T04:51:54.132Z,4.05
2019-03-29T04:53:05.372Z,4.05
2019-03-29T04:54:16.115Z,4.05
2019-03-29T04:55:27.857Z,4.05
2019-03-29T04:56:38.603Z,4.05
2019-03-29T04:57:49.346Z,4.05
2019-03-29T04:59:00.593Z,4.05
2019-03-29T05:00:11.326Z,4.05
2019-03-29T05:01:22.255Z,4.05
2019-03-29T05:02:32.984Z,4.05
2019-03-29T05:03:44.221Z,4.05
2019-03-29T05:04:54.957Z,4.05
2019-03-29T05:06:05.694Z,4.05
2019-03-29T05:07:16.427Z,4.05
2019-03-29T05:08:27.400Z,4.05
2019-03-29T05:09:38.635Z,4.05
2019-03-29T05:10:49.363Z,4.05
2019-03-29T05:12:00.586Z,4.05
2019-03-29T05:13:11.319Z,4.05
2019-03-29T05:14:22.051Z,4.05
2019-03-29T05:15:32.777Z,4.05
2019-03-29T05:16:43.616Z,4.05
2019-03-29T05:17:54.848Z,4.05
2019-03-29T05:19:05.576Z,4.05
2019-03-29T05:20:16.796Z,4.05
2019-03-29T05:21:27.535Z,4.05
2019-03-29T05:22:38.255Z,4.05
2019-03-29T05:23:48.983Z,4.05
2019-03-29T05:25:00.700Z,4.05
2019-03-29T05:26:11.916Z,4.05
2019-03-29T05:27:22.644Z,4.05
2019-03-29T05:28:33.869Z,4.05
2019-03-29T05:29:45.092Z,4.05
2019-03-29T05:30:55.816Z,4.05
2019-03-29T05:32:06.545Z,4.05
2019-03-29T05:33:17.270Z,4.05
2019-03-29T05:34:28.060Z,4.05
2019-03-29T05:35:39.709Z,4.05
2019-03-29T05:36:50.432Z,4.05
2019-03-29T05:38:01.154Z,4.05
2019-03-29T05:39:11.880Z,4.05
2019-03-29T05:40:34.400Z,4.05
2019-03-29T05:41:33.829Z,4.05
2019-03-29T05:42:44.547Z,4.05
2019-03-29T05:43:55.752Z,4.05
2019-03-29T05:45:06.959Z,4.05
2019-03-29T05:46:18.184Z,4.05
2019-03-29T05:47:28.913Z,4.05
2019-03-29T05:48:39.637Z,4.05
2019-03-29T05:49:50.359Z,4.05
2019-03-29T05:51:01.080Z,4.05
2019-03-29T05:52:12.810Z,4.05
2019-03-29T05:53:24.023Z,4.05
2019-03-29T05:54:34.746Z,4.05
2019-03-29T05:55:48.163Z,4.05
2019-03-29T05:56:56.354Z,4.05
2019-03-29T05:58:07.077Z,4.05
2019-03-29T05:59:18.291Z,4.05
2019-03-29T06:00:29.580Z,4.05
2019-03-29T06:01:40.798Z,4.05
2019-03-29T06:02:51.504Z,4.05
2019-03-29T06:04:02.721Z,4.05
2019-03-29T06:05:13.439Z,4.05
2019-03-29T06:06:24.168Z,4.05
2019-03-29T06:07:34.894Z,4.05
2019-03-29T06:08:45.615Z,4.05
2019-03-29T06:09:56.350Z,4.05
2019-03-29T06:11:07.580Z,4.05
2019-03-29T06:12:18.802Z,4.05
2019-03-29T06:13:29.518Z,4.05
2019-03-29T06:14:40.241Z,4.05
2019-03-29T06:15:51.265Z,4.06
2019-03-29T06:17:02.481Z,4.05
2019-03-29T06:18:13.200Z,4.06
2019-03-29T06:19:24.418Z,4.06
2019-03-29T06:20:36.140Z,4.06
2019-03-29T06:21:46.882Z,4.06
2019-03-29T06:22:57.606Z,4.06
2019-03-29T06:24:08.321Z,4.06
2019-03-29T06:25:19.586Z,4.06
2019-03-29T06:26:30.308Z,4.06
2019-03-29T06:27:41.584Z,4.06
2019-03-29T06:28:52.309Z,4.06
2019-03-29T06:30:03.038Z,4.05
2019-03-29T06:31:13.774Z,4.06
2019-03-29T06:32:24.497Z,4.06
2019-03-29T06:33:35.225Z,4.06
2019-03-29T06:34:46.442Z,4.06
2019-03-29T06:35:57.667Z,4.06
2019-03-29T06:37:08.407Z,4.06
2019-03-29T06:38:19.144Z,4.06
2019-03-29T06:39:30.365Z,4.06
2019-03-29T06:40:41.097Z,4.06
2019-03-29T06:41:52.311Z,4.06
2019-03-29T06:43:03.657Z,4.06
2019-03-29T06:44:15.806Z,4.06
2019-03-29T06:45:27.033Z,4.06
2019-03-29T06:46:38.251Z,4.06
2019-03-29T06:47:48.983Z,4.06
2019-03-29T06:49:00.713Z,4.06
2019-03-29T06:50:13.967Z,4.06
2019-03-29T06:51:22.828Z,4.06
2019-03-29T06:52:33.415Z,4.06
2019-03-29T06:53:44.638Z,4.06
2019-03-29T06:54:55.869Z,4.06
2019-03-29T06:56:06.605Z,4.06
2019-03-29T06:57:17.345Z,4.06
2019-03-29T06:58:28.081Z,4.06
2019-03-29T06:59:39.322Z,4.06
2019-03-29T07:00:50.554Z,4.06
2019-03-29T07:02:01.373Z,4.06
2019-03-29T07:03:12.042Z,4.06
2019-03-29T07:04:22.775Z,4.06
2019-03-29T07:05:34.013Z,4.06
2019-03-29T07:06:45.254Z,4.06
2019-03-29T07:07:56.000Z,4.06
2019-03-29T07:09:07.231Z,4.06
2019-03-29T07:10:18.006Z,4.06
2019-03-29T07:11:29.242Z,4.06
2019-03-29T07:12:40.986Z,4.06
2019-03-29T07:13:57.668Z,4.06
2019-03-29T07:15:02.974Z,4.06
2019-03-29T07:16:14.182Z,4.06
2019-03-29T07:17:24.939Z,4.06
2019-03-29T07:18:36.176Z,4.06
2019-03-29T07:19:46.928Z,4.06
2019-03-29T07:20:57.673Z,4.06
2019-03-29T07:22:08.426Z,4.06
2019-03-29T07:23:19.190Z,4.06
2019-03-29T07:24:29.948Z,4.06
2019-03-29T07:25:40.700Z,4.06
2019-03-29T07:26:52.942Z,4.06
2019-03-29T07:28:04.209Z,4.06
2019-03-29T07:29:15.455Z,4.06
2019-03-29T07:30:27.221Z,4.06
2019-03-29T07:31:37.979Z,4.06
2019-03-29T07:32:48.743Z,4.06
2019-03-29T07:33:59.504Z,4.06
2019-03-29T07:35:10.264Z,4.06
2019-03-29T07:36:21.055Z,4.06
2019-03-29T07:37:31.837Z,4.06
2019-03-29T07:38:43.602Z,4.06
2019-03-29T07:39:54.360Z,4.06
2019-03-29T07:41:05.119Z,4.06
2019-03-29T07:42:15.887Z,4.06
2019-03-29T07:43:26.671Z,4.06
2019-03-29T07:44:37.425Z,4.06
2019-03-29T07:45:48.754Z,4.06
2019-03-29T07:46:59.538Z,4.06
2019-03-29T07:48:10.307Z,4.06
2019-03-29T07:49:21.077Z,4.06
2019-03-29T07:50:32.356Z,4.06
2019-03-29T07:51:43.126Z,4.06
2019-03-29T07:52:53.922Z,4.06
2019-03-29T07:54:05.241Z,4.06
2019-03-29T07:55:16.001Z,4.06
2019-03-29T07:56:26.780Z,4.06
2019-03-29T07:57:38.072Z,4.06
2019-03-29T07:58:48.842Z,4.06
2019-03-29T07:59:59.702Z,4.06
2019-03-29T08:01:10.587Z,4.06
2019-03-29T08:02:21.370Z,4.06
2019-03-29T08:03:32.149Z,4.06
2019-03-29T08:04:46.378Z,4.06
2019-03-29T08:05:54.207Z,4.06
2019-03-29T08:07:06.139Z,4.06
2019-03-29T08:08:23.792Z,4.06
2019-03-29T08:09:27.414Z,4.06
2019-03-29T08:10:37.361Z,4.06
2019-03-29T08:11:48.140Z,4.06
2019-03-29T08:12:58.934Z,4.06
2019-03-29T08:14:09.740Z,4.06
2019-03-29T08:15:20.522Z,4.06
2019-03-29T08:16:31.312Z,4.06
2019-03-29T08:17:42.112Z,4.06
2019-03-29T08:18:52.915Z,4.07
2019-03-29T08:20:36.557Z,4.07
2019-03-29T08:21:15.996Z,4.06
2019-03-29T08:22:28.288Z,4.07
2019-03-29T08:23:39.090Z,4.07
2019-03-29T08:24:49.888Z,4.07
2019-03-29T08:26:00.688Z,4.07
2019-03-29T08:27:11.491Z,4.06
2019-03-29T08:28:22.298Z,4.07
2019-03-29T08:29:33.602Z,4.07
2019-03-29T08:30:44.406Z,4.07
2019-03-29T08:31:55.853Z,4.07
2019-03-29T08:33:06.531Z,4.08
2019-03-29T08:34:17.846Z,4.08
2019-03-29T08:35:28.686Z,4.10
2019-03-29T08:36:39.467Z,4.12
2019-03-29T08:37:50.277Z,4.09
2019-03-29T08:39:01.578Z,4.08
2019-03-29T08:40:12.418Z,4.09
2019-03-29T08:41:23.276Z,4.08
2019-03-29T08:42:34.589Z,4.08
2019-03-29T08:43:45.906Z,4.08
2019-03-29T08:44:56.721Z,4.08
2019-03-29T08:46:08.029Z,4.08
2019-03-29T08:47:19.369Z,4.08
2019-03-29T08:48:30.686Z,4.09
2019-03-29T08:49:42.018Z,4.09
2019-03-29T08:50:52.847Z,4.09
2019-03-29T08:52:04.583Z,4.08
2019-03-29T08:53:15.425Z,4.09
2019-03-29T08:54:26.329Z,4.09
2019-03-29T08:55:45.741Z,4.09
2019-03-29T08:56:48.932Z,4.09
2019-03-29T08:57:59.766Z,4.09
2019-03-29T08:59:11.108Z,4.09
2019-03-29T09:00:21.961Z,4.09
2019-03-29T09:01:33.301Z,4.09
2019-03-29T09:02:44.339Z,4.09
2019-03-29T09:04:04.628Z,4.09
2019-03-29T09:05:06.594Z,4.09
2019-03-29T09:06:17.452Z,4.09
2019-03-29T09:07:28.319Z,4.09
2019-03-29T09:08:39.181Z,4.09
2019-03-29T09:09:50.054Z,4.09
2019-03-29T09:11:00.917Z,4.09
2019-03-29T09:12:14.729Z,4.09
2019-03-29T09:13:24.143Z,4.09
2019-03-29T09:14:35.026Z,4.09
2019-03-29T09:15:45.903Z,4.09
2019-03-29T09:16:57.265Z,4.09
2019-03-29T09:18:08.637Z,4.09
2019-03-29T09:19:19.517Z,4.09
2019-03-29T09:20:30.428Z,4.09
2019-03-29T09:21:41.812Z,4.09
2019-03-29T09:22:53.205Z,4.09
2019-03-29T09:24:04.606Z,4.09
2019-03-29T09:25:15.557Z,4.09
2019-03-29T09:26:26.981Z,4.09
2019-03-29T09:27:38.428Z,4.09
2019-03-29T09:28:49.424Z,4.09
2019-03-29T09:30:00.524Z,4.09
2019-03-29T09:31:11.491Z,4.08
2019-03-29T09:32:23.067Z,4.09
2019-03-29T09:33:34.682Z,4.08
2019-03-29T09:34:46.314Z,4.09
2019-03-29T09:35:57.978Z,4.08
2019-03-29T09:37:09.195Z,4.08
2019-03-29T09:38:20.911Z,4.08
2019-03-29T09:39:32.666Z,4.08
2019-03-29T09:40:54.757Z,4.08
2019-03-29T09:41:55.776Z,4.08
2019-03-29T09:43:08.436Z,4.08
2019-03-29T09:44:19.366Z,4.09
2019-03-29T09:45:31.174Z,4.08
2019-03-29T09:46:42.977Z,4.08
2019-03-29T09:47:56.052Z,4.08
2019-03-29T09:49:08.373Z,4.09
2019-03-29T09:50:18.549Z,4.09
2019-03-29T09:51:30.340Z,4.08
2019-03-29T09:52:42.101Z,4.09
2019-03-29T09:53:53.842Z,4.09
2019-03-29T09:55:05.569Z,4.09
2019-03-29T09:56:16.793Z,4.09
2019-03-29T09:57:37.254Z,4.09
2019-03-29T09:58:40.274Z,4.09
2019-03-29T09:59:51.445Z,4.09
2019-03-29T10:01:02.619Z,4.09
2019-03-29T10:02:15.265Z,4.10
2019-03-29T10:03:26.922Z,4.10
2019-03-29T10:04:38.581Z,4.10
2019-03-29T10:05:50.233Z,4.10
2019-03-29T10:07:01.871Z,4.10
2019-03-29T10:08:14.583Z,4.10
2019-03-29T10:09:26.218Z,4.11
2019-03-29T10:10:37.843Z,4.11
2019-03-29T10:11:49.470Z,4.10
2019-03-29T10:13:01.104Z,4.09
2019-03-29T10:14:12.248Z,4.09
2019-03-29T10:15:23.893Z,4.09
2019-03-29T10:16:35.553Z,4.09
2019-03-29T10:17:46.699Z,4.09
2019-03-29T10:18:58.345Z,4.09
2019-03-29T10:20:09.494Z,4.09
2019-03-29T10:21:21.152Z,4.09
2019-03-29T10:22:32.294Z,4.09
2019-03-29T10:23:43.941Z,4.09
2019-03-29T10:24:55.592Z,4.09
2019-03-29T10:26:06.746Z,4.09
2019-03-29T10:27:19.173Z,4.09
2019-03-29T10:28:29.573Z,4.09
2019-03-29T10:29:41.218Z,4.10
2019-03-29T10:30:52.850Z,4.10
2019-03-29T10:32:08.987Z,4.10
2019-03-29T10:33:16.242Z,4.10
2019-03-29T10:34:27.878Z,4.09
2019-03-29T10:35:50.693Z,4.09
2019-03-29T10:36:51.178Z,4.09
2019-03-29T10:38:02.343Z,4.09
2019-03-29T10:39:13.995Z,4.09
2019-03-29T10:40:25.664Z,4.09
2019-03-29T10:41:38.102Z,4.10
2019-03-29T10:42:57.574Z,4.10
2019-03-29T10:44:00.705Z,4.09
2019-03-29T10:45:12.392Z,4.10
2019-03-29T10:46:24.065Z,4.09
2019-03-29T10:47:43.738Z,4.10
2019-03-29T10:48:46.930Z,4.10
2019-03-29T10:49:59.602Z,4.10
2019-03-29T10:51:11.288Z,4.10
2019-03-29T10:52:22.968Z,4.09
2019-03-29T10:53:34.656Z,4.10
2019-03-29T10:54:49.679Z,4.10
2019-03-29T10:55:58.009Z,4.10
2019-03-29T10:57:09.689Z,4.10
2019-03-29T10:58:21.369Z,4.10
2019-03-29T10:59:33.049Z,4.10
2019-03-29T11:00:44.222Z,4.10
2019-03-29T11:01:56.173Z,4.10
2019-03-29T11:03:07.832Z,4.10
2019-03-29T11:04:18.998Z,4.10
2019-03-29T11:05:30.590Z,4.10
2019-03-29T11:06:41.770Z,4.10
2019-03-29T11:07:53.469Z,4.10
2019-03-29T11:09:05.151Z,4.10
2019-03-29T11:10:16.859Z,4.10
2019-03-29T11:11:28.583Z,4.10
2019-03-29T11:12:39.796Z,4.10
2019-03-29T11:13:51.501Z,4.10
2019-03-29T11:15:06.354Z,4.10
2019-03-29T11:16:13.935Z,4.10
2019-03-29T11:17:25.701Z,4.10
2019-03-29T11:18:37.498Z,4.10
2019-03-29T11:19:48.806Z,4.10
2019-03-29T11:21:00.158Z,4.09
2019-03-29T11:22:12.037Z,4.10
2019-03-29T11:23:23.430Z,4.10
2019-03-29T11:24:34.849Z,4.10
2019-03-29T11:25:48.678Z,4.10
2019-03-29T11:26:58.166Z,4.10
2019-03-29T11:28:10.083Z,4.10
2019-03-29T11:29:22.000Z,4.10
2019-03-29T11:30:42.125Z,4.10
2019-03-29T11:31:45.770Z,4.10
2019-03-29T11:32:57.653Z,4.10
2019-03-29T11:34:09.044Z,4.10
2019-03-29T11:35:20.916Z,4.10
2019-03-29T11:36:32.281Z,4.10
2019-03-29T11:37:44.650Z,4.10
2019-03-29T11:38:56.013Z,4.10
2019-03-29T11:40:07.855Z,4.10
2019-03-29T11:41:19.706Z,4.10
2019-03-29T11:42:31.068Z,4.10
2019-03-29T11:43:43.907Z,4.10
2019-03-29T11:44:55.263Z,4.10
2019-03-29T11:46:07.121Z,4.10
2019-03-29T11:47:18.599Z,4.10
2019-03-29T11:48:30.602Z,4.10
2019-03-29T11:49:42.584Z,4.10
2019-03-29T11:50:54.596Z,4.10
2019-03-29T11:52:06.590Z,4.10
2019-03-29T11:53:18.549Z,4.10
2019-03-29T11:54:30.488Z,4.10
2019-03-29T11:55:42.415Z,4.09
2019-03-29T11:56:54.336Z,4.10
2019-03-29T11:58:06.253Z,4.10
2019-03-29T11:59:18.161Z,4.10
2019-03-29T12:00:30.059Z,4.10
2019-03-29T12:01:41.948Z,4.10
2019-03-29T12:02:53.837Z,4.10
2019-03-29T12:04:05.224Z,4.10
2019-03-29T12:05:17.117Z,4.10
2019-03-29T12:06:28.981Z,4.10
2019-03-29T12:07:40.875Z,4.10
2019-03-29T12:08:52.745Z,4.10
2019-03-29T12:10:04.634Z,4.10
2019-03-29T12:11:17.034Z,4.10
2019-03-29T12:12:28.961Z,4.10
2019-03-29T12:13:41.647Z,4.10
2019-03-29T12:14:52.890Z,4.09
2019-03-29T12:16:04.879Z,4.10
2019-03-29T12:17:16.894Z,4.09
2019-03-29T12:18:28.431Z,4.09
2019-03-29T12:19:40.596Z,4.09
2019-03-29T12:20:54.379Z,4.09
2019-03-29T12:22:04.723Z,4.09
2019-03-29T12:23:16.806Z,4.09
2019-03-29T12:24:28.898Z,4.09
2019-03-29T12:25:40.987Z,4.09
2019-03-29T12:26:55.010Z,4.09
2019-03-29T12:28:05.200Z,4.09
2019-03-29T12:29:17.296Z,4.09
2019-03-29T12:30:32.226Z,4.09
2019-03-29T12:31:41.013Z,4.09
2019-03-29T12:32:53.070Z,4.09
2019-03-29T12:34:05.138Z,4.09
2019-03-29T12:35:17.205Z,4.09
2019-03-29T12:36:29.288Z,4.09
2019-03-29T12:37:41.381Z,4.09
2019-03-29T12:38:54.606Z,4.09
2019-03-29T12:40:06.742Z,4.09
2019-03-29T12:41:18.861Z,4.09
2019-03-29T12:42:30.998Z,4.09
2019-03-29T12:43:54.895Z,4.09
2019-03-29T12:44:55.315Z,4.09
2019-03-29T12:46:07.457Z,4.09
2019-03-29T12:47:19.630Z,4.09
2019-03-29T12:48:31.840Z,4.09
2019-03-29T12:49:44.014Z,4.09
2019-03-29T12:50:55.727Z,4.09
2019-03-29T12:52:07.943Z,4.09
2019-03-29T12:53:19.673Z,4.09
2019-03-29T12:54:31.409Z,4.09
2019-03-29T12:55:43.154Z,4.09
2019-03-29T12:56:54.888Z,4.09
2019-03-29T12:58:07.133Z,4.09
2019-03-29T12:59:19.377Z,4.09
2019-03-29T13:00:31.137Z,4.09
2019-03-29T13:01:42.889Z,4.09
2019-03-29T13:02:54.647Z,4.09
2019-03-29T13:04:09.627Z,4.09
2019-03-29T13:05:18.678Z,4.09
2019-03-29T13:06:30.449Z,4.09
2019-03-29T13:07:42.237Z,4.09
2019-03-29T13:08:54.586Z,4.09
2019-03-29T13:10:06.855Z,4.09
2019-03-29T13:11:19.124Z,4.09
2019-03-29T13:12:30.897Z,4.09
2019-03-29T13:13:42.672Z,4.09
2019-03-29T13:14:54.947Z,4.09
2019-03-29T13:16:06.720Z,4.09
2019-03-29T13:17:18.496Z,4.09
2019-03-29T13:18:30.760Z,4.09
2019-03-29T13:19:43.039Z,4.09
2019-03-29T13:20:55.313Z,4.09
2019-03-29T13:22:07.584Z,4.09
2019-03-29T13:23:19.943Z,4.09
2019-03-29T13:24:32.222Z,4.09
2019-03-29T13:25:44.590Z,4.09
2019-03-29T13:26:56.378Z,4.09
2019-03-29T13:28:08.157Z,4.09
2019-03-29T13:29:19.948Z,4.09
2019-03-29T13:30:31.738Z,4.09
2019-03-29T13:31:43.515Z,4.09
2019-03-29T13:32:55.302Z,4.09
2019-03-29T13:34:07.564Z,4.09
2019-03-29T13:35:19.353Z,4.09
2019-03-29T13:36:31.617Z,4.09
2019-03-29T13:37:43.396Z,4.09
2019-03-29T13:38:55.661Z,4.09
2019-03-29T13:40:07.445Z,4.09
2019-03-29T13:41:19.225Z,4.09
2019-03-29T13:42:31.007Z,4.09
2019-03-29T13:43:42.769Z,4.09
2019-03-29T13:44:55.046Z,4.09
2019-03-29T13:46:06.806Z,4.09
2019-03-29T13:47:18.574Z,4.09
2019-03-29T13:48:31.840Z,4.09
2019-03-29T13:49:43.614Z,4.09
2019-03-29T13:50:55.367Z,4.09
2019-03-29T13:52:07.646Z,4.09
2019-03-29T13:53:19.903Z,4.09
2019-03-29T13:54:31.646Z,4.09
2019-03-29T13:55:43.898Z,4.09
2019-03-29T13:56:56.134Z,4.09
2019-03-29T13:58:08.378Z,4.09
2019-03-29T13:59:20.633Z,4.09
2019-03-29T14:00:32.882Z,4.09
2019-03-29T14:01:45.114Z,4.09
2019-03-29T14:02:57.857Z,4.09
2019-03-29T14:04:09.595Z,4.09
2019-03-29T14:05:21.338Z,4.09
2019-03-29T14:06:33.072Z,4.09
2019-03-29T14:07:45.305Z,4.09
2019-03-29T14:08:57.524Z,4.09
2019-03-29T14:10:09.737Z,4.09
2019-03-29T14:11:21.977Z,4.09
2019-03-29T14:12:33.695Z,4.09
2019-03-29T14:13:45.405Z,4.09
2019-03-29T14:14:57.601Z,4.08
2019-03-29T14:16:09.319Z,4.09
2019-03-29T14:17:21.018Z,4.09
2019-03-29T14:18:32.709Z,4.09
2019-03-29T14:19:44.403Z,4.09
2019-03-29T14:20:56.636Z,4.09
2019-03-29T14:22:08.813Z,4.09
2019-03-29T14:23:20.984Z,4.09
2019-03-29T14:24:33.464Z,4.09
2019-03-29T14:25:45.644Z,4.09
2019-03-29T14:26:57.844Z,4.09
2019-03-29T14:28:09.996Z,4.09
2019-03-29T14:29:22.153Z,4.09
2019-03-29T14:30:34.289Z,4.09
2019-03-29T14:31:46.425Z,4.09
2019-03-29T14:32:58.586Z,4.08
2019-03-29T14:34:10.214Z,4.09
2019-03-29T14:35:21.850Z,4.08
2019-03-29T14:36:33.990Z,4.08
2019-03-29T14:37:46.098Z,4.08
2019-03-29T14:38:58.213Z,4.09
2019-03-29T14:40:10.323Z,4.09
2019-03-29T14:41:22.437Z,4.09
2019-03-29T14:42:34.110Z,4.09
2019-03-29T14:43:46.126Z,4.08
2019-03-29T14:44:58.223Z,4.08
2019-03-29T14:46:10.328Z,4.09
2019-03-29T14:47:21.909Z,4.08
2019-03-29T14:48:33.977Z,4.09
2019-03-29T14:49:46.040Z,4.08
2019-03-29T14:50:57.596Z,4.08
2019-03-29T14:52:09.638Z,4.08
2019-03-29T14:53:21.161Z,4.09
2019-03-29T14:54:32.685Z,4.08
2019-03-29T14:55:44.687Z,4.08
2019-03-29T14:56:56.677Z,4.08
2019-03-29T14:58:08.171Z,4.08
2019-03-29T14:59:19.659Z,4.09
2019-03-29T15:00:31.636Z,4.08
2019-03-29T15:01:43.108Z,4.09
2019-03-29T15:02:54.568Z,4.08
2019-03-29T15:04:06.621Z,4.08
2019-03-29T15:05:18.066Z,4.09
2019-03-29T15:06:29.516Z,4.09
2019-03-29T15:07:41.623Z,4.08
2019-03-29T15:08:53.617Z,4.08
2019-03-29T15:10:05.548Z,4.08
2019-03-29T15:11:22.448Z,4.08
2019-03-29T15:12:28.890Z,4.09
2019-03-29T15:13:40.305Z,4.08
2019-03-29T15:15:05.239Z,4.09
2019-03-29T15:16:03.109Z,4.08
2019-03-29T15:17:15.025Z,4.08
2019-03-29T15:18:26.929Z,4.09
2019-03-29T15:19:38.301Z,4.08
2019-03-29T15:20:53.932Z,4.08
2019-03-29T15:22:01.535Z,4.08
2019-03-29T15:23:13.406Z,4.09
2019-03-29T15:24:25.298Z,4.09
2019-03-29T15:25:40.341Z,4.09
2019-03-29T15:26:48.444Z,4.08
2019-03-29T15:28:00.292Z,4.09
2019-03-29T15:29:12.119Z,4.09
2019-03-29T15:30:23.442Z,4.09
2019-03-29T15:31:34.754Z,4.09
2019-03-29T15:32:46.547Z,4.09
2019-03-29T15:33:57.833Z,4.09
2019-03-29T15:35:09.633Z,4.09
2019-03-29T15:36:21.397Z,4.08
2019-03-29T15:37:32.669Z,4.09
2019-03-29T15:38:45.405Z,4.08
2019-03-29T15:39:57.162Z,4.09
2019-03-29T15:41:08.403Z,4.08
2019-03-29T15:42:20.697Z,4.09
2019-03-29T15:43:31.393Z,4.09
2019-03-29T15:44:43.107Z,4.08
2019-03-29T15:45:54.318Z,4.09
2019-03-29T15:47:05.517Z,4.08
2019-03-29T15:48:17.222Z,4.09
2019-03-29T15:49:28.894Z,4.09